sensor_id;sensor_type;location;lat;lon;timestamp;P1;durP1;ratioP1;P2;durP2;ratioP2
7833;SDS011;3962;42.696;23.354;2022-07-29T00:00:04;13.50;;;11.33;;
7833;SDS011;3962;42.696;23.354;2022-07-29T00:02:32;13.00;;;10.90;;
7833;SDS011;3962;42.696;23.354;2022-07-29T00:04:59;12.97;;;11.27;;
7833;SDS011;3962;42.696;23.354;2022-07-29T00:07:25;12.10;;;10.87;;
7833;SDS011;3962;42.696;23.354;2022-07-29T00:09:52;13.57;;;10.73;;
7833;SDS011;3962;42.696;23.354;2022-07-29T00:12:20;12.53;;;11.27;;
7833;SDS011;3962;42.696;23.354;2022-07-29T00:14:47;11.80;;;10.47;;
7833;SDS011;3962;42.696;23.354;2022-07-29T00:17:16;11.87;;;9.97;;
7833;SDS011;3962;42.696;23.354;2022-07-29T00:19:42;12.47;;;11.17;;
7833;SDS011;3962;42.696;23.354;2022-07-29T00:22:09;12.83;;;11.17;;
7833;SDS011;3962;42.696;23.354;2022-07-29T00:24:36;11.97;;;10.77;;
7833;SDS011;3962;42.696;23.354;2022-07-29T00:27:03;12.30;;;11.07;;
7833;SDS011;3962;42.696;23.354;2022-07-29T00:29:30;12.47;;;11.17;;
7833;SDS011;3962;42.696;23.354;2022-07-29T00:31:56;12.23;;;11.03;;
7833;SDS011;3962;42.696;23.354;2022-07-29T00:34:25;14.73;;;11.87;;
7833;SDS011;3962;42.696;23.354;2022-07-29T00:37:09;16.90;;;12.67;;
7833;SDS011;3962;42.696;23.354;2022-07-29T00:39:35;15.13;;;13.07;;
7833;SDS011;3962;42.696;23.354;2022-07-29T00:42:02;16.70;;;12.73;;
7833;SDS011;3962;42.696;23.354;2022-07-29T00:44:30;19.00;;;14.10;;
7833;SDS011;3962;42.696;23.354;2022-07-29T00:46:57;18.93;;;14.27;;
7833;SDS011;3962;42.696;23.354;2022-07-29T00:49:25;17.67;;;14.03;;
7833;SDS011;3962;42.696;23.354;2022-07-29T00:51:52;16.33;;;13.50;;
7833;SDS011;3962;42.696;23.354;2022-07-29T00:54:19;17.30;;;14.43;;
7833;SDS011;3962;42.696;23.354;2022-07-29T00:56:46;18.87;;;16.67;;
7833;SDS011;3962;42.696;23.354;2022-07-29T00:59:13;19.93;;;16.73;;
7833;SDS011;3962;42.696;23.354;2022-07-29T01:01:39;24.17;;;18.73;;
7833;SDS011;3962;42.696;23.354;2022-07-29T01:04:06;23.30;;;18.43;;
7833;SDS011;3962;42.696;23.354;2022-07-29T01:06:34;22.47;;;18.90;;
7833;SDS011;3962;42.696;23.354;2022-07-29T01:09:01;24.10;;;18.23;;
7833;SDS011;3962;42.696;23.354;2022-07-29T01:11:28;20.07;;;17.10;;
7833;SDS011;3962;42.696;23.354;2022-07-29T01:13:55;21.73;;;17.97;;
7833;SDS011;3962;42.696;23.354;2022-07-29T01:16:24;28.07;;;19.43;;
7833;SDS011;3962;42.696;23.354;2022-07-29T01:18:59;20.13;;;18.00;;
7833;SDS011;3962;42.696;23.354;2022-07-29T01:21:44;21.57;;;19.03;;
7833;SDS011;3962;42.696;23.354;2022-07-29T01:24:30;22.33;;;18.83;;
7833;SDS011;3962;42.696;23.354;2022-07-29T01:27:07;22.60;;;18.20;;
7833;SDS011;3962;42.696;23.354;2022-07-29T01:29:49;23.33;;;18.43;;
7833;SDS011;3962;42.696;23.354;2022-07-29T01:32:22;22.87;;;18.53;;
7833;SDS011;3962;42.696;23.354;2022-07-29T01:34:53;21.53;;;18.83;;
7833;SDS011;3962;42.696;23.354;2022-07-29T01:37:24;23.13;;;19.00;;
7833;SDS011;3962;42.696;23.354;2022-07-29T01:39:55;20.10;;;18.00;;
7833;SDS011;3962;42.696;23.354;2022-07-29T01:42:25;20.73;;;18.60;;
7833;SDS011;3962;42.696;23.354;2022-07-29T01:44:57;20.87;;;17.70;;
7833;SDS011;3962;42.696;23.354;2022-07-29T01:47:30;22.63;;;18.17;;
7833;SDS011;3962;42.696;23.354;2022-07-29T01:50:01;23.90;;;19.27;;
7833;SDS011;3962;42.696;23.354;2022-07-29T01:52:37;23.53;;;19.63;;
7833;SDS011;3962;42.696;23.354;2022-07-29T01:55:09;22.80;;;19.77;;
7833;SDS011;3962;42.696;23.354;2022-07-29T01:57:41;25.37;;;19.40;;
7833;SDS011;3962;42.696;23.354;2022-07-29T02:00:13;22.17;;;19.07;;
7833;SDS011;3962;42.696;23.354;2022-07-29T02:02:42;23.43;;;19.57;;
7833;SDS011;3962;42.696;23.354;2022-07-29T02:05:12;21.77;;;19.00;;
7833;SDS011;3962;42.696;23.354;2022-07-29T02:07:42;22.87;;;18.83;;
7833;SDS011;3962;42.696;23.354;2022-07-29T02:10:10;21.70;;;17.57;;
7833;SDS011;3962;42.696;23.354;2022-07-29T02:12:39;21.80;;;17.30;;
7833;SDS011;3962;42.696;23.354;2022-07-29T02:15:09;21.87;;;17.43;;
7833;SDS011;3962;42.696;23.354;2022-07-29T02:17:41;20.23;;;17.63;;
7833;SDS011;3962;42.696;23.354;2022-07-29T02:20:10;24.47;;;19.00;;
7833;SDS011;3962;42.696;23.354;2022-07-29T02:22:38;22.30;;;18.10;;
7833;SDS011;3962;42.696;23.354;2022-07-29T02:25:07;23.37;;;18.13;;
7833;SDS011;3962;42.696;23.354;2022-07-29T02:27:35;26.17;;;18.43;;
7833;SDS011;3962;42.696;23.354;2022-07-29T02:30:04;27.60;;;19.60;;
7833;SDS011;3962;42.696;23.354;2022-07-29T02:32:35;22.83;;;19.10;;
7833;SDS011;3962;42.696;23.354;2022-07-29T02:35:06;23.30;;;19.17;;
7833;SDS011;3962;42.696;23.354;2022-07-29T02:37:35;22.50;;;18.47;;
7833;SDS011;3962;42.696;23.354;2022-07-29T02:40:02;24.33;;;19.07;;
7833;SDS011;3962;42.696;23.354;2022-07-29T02:42:31;27.27;;;18.93;;
7833;SDS011;3962;42.696;23.354;2022-07-29T02:44:59;23.43;;;19.37;;
7833;SDS011;3962;42.696;23.354;2022-07-29T02:47:27;28.37;;;19.67;;
7833;SDS011;3962;42.696;23.354;2022-07-29T02:50:04;24.37;;;19.87;;
7833;SDS011;3962;42.696;23.354;2022-07-29T02:52:37;28.90;;;22.27;;
7833;SDS011;3962;42.696;23.354;2022-07-29T02:55:09;26.97;;;20.10;;
7833;SDS011;3962;42.696;23.354;2022-07-29T02:57:42;26.20;;;19.80;;
7833;SDS011;3962;42.696;23.354;2022-07-29T03:00:11;28.47;;;18.93;;
7833;SDS011;3962;42.696;23.354;2022-07-29T03:02:39;23.83;;;18.80;;
7833;SDS011;3962;42.696;23.354;2022-07-29T03:05:13;23.13;;;18.40;;
7833;SDS011;3962;42.696;23.354;2022-07-29T03:07:45;21.27;;;18.27;;
7833;SDS011;3962;42.696;23.354;2022-07-29T03:10:13;21.07;;;16.27;;
7833;SDS011;3962;42.696;23.354;2022-07-29T03:12:41;20.33;;;15.97;;
7833;SDS011;3962;42.696;23.354;2022-07-29T03:15:08;19.33;;;17.03;;
7833;SDS011;3962;42.696;23.354;2022-07-29T03:17:36;24.63;;;18.57;;
7833;SDS011;3962;42.696;23.354;2022-07-29T03:20:04;20.43;;;17.27;;
7833;SDS011;3962;42.696;23.354;2022-07-29T03:22:34;22.60;;;17.00;;
7833;SDS011;3962;42.696;23.354;2022-07-29T03:25:08;21.40;;;18.40;;
7833;SDS011;3962;42.696;23.354;2022-07-29T03:27:36;24.17;;;18.30;;
7833;SDS011;3962;42.696;23.354;2022-07-29T03:30:03;21.93;;;17.33;;
7833;SDS011;3962;42.696;23.354;2022-07-29T03:32:30;29.33;;;17.90;;
7833;SDS011;3962;42.696;23.354;2022-07-29T03:34:57;23.93;;;17.23;;
7833;SDS011;3962;42.696;23.354;2022-07-29T03:37:24;18.67;;;16.80;;
7833;SDS011;3962;42.696;23.354;2022-07-29T03:39:52;20.37;;;17.07;;
7833;SDS011;3962;42.696;23.354;2022-07-29T03:42:23;22.03;;;17.53;;
7833;SDS011;3962;42.696;23.354;2022-07-29T03:44:52;20.03;;;17.40;;
7833;SDS011;3962;42.696;23.354;2022-07-29T03:47:20;24.27;;;18.17;;
7833;SDS011;3962;42.696;23.354;2022-07-29T03:49:52;20.10;;;17.83;;
7833;SDS011;3962;42.696;23.354;2022-07-29T03:52:22;22.27;;;17.53;;
7833;SDS011;3962;42.696;23.354;2022-07-29T03:54:49;19.37;;;17.00;;
7833;SDS011;3962;42.696;23.354;2022-07-29T03:57:18;21.10;;;17.83;;
7833;SDS011;3962;42.696;23.354;2022-07-29T03:59:50;19.90;;;17.67;;
7833;SDS011;3962;42.696;23.354;2022-07-29T04:02:17;22.97;;;17.93;;
7833;SDS011;3962;42.696;23.354;2022-07-29T04:04:44;27.70;;;17.30;;
7833;SDS011;3962;42.696;23.354;2022-07-29T04:07:11;25.93;;;17.57;;
7833;SDS011;3962;42.696;23.354;2022-07-29T04:09:38;17.67;;;14.50;;
7833;SDS011;3962;42.696;23.354;2022-07-29T04:12:07;14.87;;;13.37;;
7833;SDS011;3962;42.696;23.354;2022-07-29T04:14:34;16.17;;;13.57;;
7833;SDS011;3962;42.696;23.354;2022-07-29T04:17:02;22.60;;;13.60;;
7833;SDS011;3962;42.696;23.354;2022-07-29T04:19:30;23.00;;;15.33;;
7833;SDS011;3962;42.696;23.354;2022-07-29T04:21:58;17.87;;;14.30;;
7833;SDS011;3962;42.696;23.354;2022-07-29T04:24:26;18.53;;;14.53;;
7833;SDS011;3962;42.696;23.354;2022-07-29T04:26:53;16.53;;;13.37;;
7833;SDS011;3962;42.696;23.354;2022-07-29T04:29:21;19.90;;;14.10;;
7833;SDS011;3962;42.696;23.354;2022-07-29T04:31:48;18.67;;;12.43;;
7833;SDS011;3962;42.696;23.354;2022-07-29T04:34:15;18.83;;;13.27;;
7833;SDS011;3962;42.696;23.354;2022-07-29T04:36:42;18.53;;;13.03;;
7833;SDS011;3962;42.696;23.354;2022-07-29T04:39:09;14.97;;;12.27;;
7833;SDS011;3962;42.696;23.354;2022-07-29T04:41:36;12.87;;;11.07;;
7833;SDS011;3962;42.696;23.354;2022-07-29T04:44:03;12.20;;;10.83;;
7833;SDS011;3962;42.696;23.354;2022-07-29T04:46:32;13.27;;;11.03;;
7833;SDS011;3962;42.696;23.354;2022-07-29T04:48:59;15.67;;;10.93;;
7833;SDS011;3962;42.696;23.354;2022-07-29T04:51:26;11.20;;;9.73;;
7833;SDS011;3962;42.696;23.354;2022-07-29T04:53:52;12.33;;;10.20;;
7833;SDS011;3962;42.696;23.354;2022-07-29T04:56:19;17.87;;;12.37;;
7833;SDS011;3962;42.696;23.354;2022-07-29T04:58:46;13.67;;;10.37;;
7833;SDS011;3962;42.696;23.354;2022-07-29T05:01:13;10.17;;;9.13;;
7833;SDS011;3962;42.696;23.354;2022-07-29T05:03:41;14.50;;;9.27;;
7833;SDS011;3962;42.696;23.354;2022-07-29T05:06:09;14.47;;;10.50;;
7833;SDS011;3962;42.696;23.354;2022-07-29T05:08:36;13.20;;;9.47;;
7833;SDS011;3962;42.696;23.354;2022-07-29T05:11:03;11.03;;;9.30;;
7833;SDS011;3962;42.696;23.354;2022-07-29T05:13:30;10.40;;;9.30;;
7833;SDS011;3962;42.696;23.354;2022-07-29T05:15:56;13.43;;;10.13;;
7833;SDS011;3962;42.696;23.354;2022-07-29T05:18:24;15.93;;;10.37;;
7833;SDS011;3962;42.696;23.354;2022-07-29T05:20:52;14.77;;;9.87;;
7833;SDS011;3962;42.696;23.354;2022-07-29T05:23:19;12.77;;;9.70;;
7833;SDS011;3962;42.696;23.354;2022-07-29T05:25:46;13.03;;;9.37;;
7833;SDS011;3962;42.696;23.354;2022-07-29T05:28:13;12.17;;;9.37;;
7833;SDS011;3962;42.696;23.354;2022-07-29T05:30:40;13.07;;;9.67;;
7833;SDS011;3962;42.696;23.354;2022-07-29T05:33:07;13.30;;;9.53;;
7833;SDS011;3962;42.696;23.354;2022-07-29T05:35:33;14.13;;;9.63;;
7833;SDS011;3962;42.696;23.354;2022-07-29T05:38:03;13.20;;;9.00;;
7833;SDS011;3962;42.696;23.354;2022-07-29T05:40:30;13.03;;;8.60;;
7833;SDS011;3962;42.696;23.354;2022-07-29T05:42:57;15.43;;;9.00;;
7833;SDS011;3962;42.696;23.354;2022-07-29T05:45:24;15.07;;;9.20;;
7833;SDS011;3962;42.696;23.354;2022-07-29T05:47:51;15.23;;;8.63;;
7833;SDS011;3962;42.696;23.354;2022-07-29T05:50:18;8.33;;;7.47;;
7833;SDS011;3962;42.696;23.354;2022-07-29T05:52:45;8.07;;;7.07;;
7833;SDS011;3962;42.696;23.354;2022-07-29T05:55:13;11.00;;;7.87;;
7833;SDS011;3962;42.696;23.354;2022-07-29T05:57:40;15.73;;;7.50;;
7833;SDS011;3962;42.696;23.354;2022-07-29T06:00:09;11.80;;;8.37;;
7833;SDS011;3962;42.696;23.354;2022-07-29T06:02:36;13.77;;;8.57;;
7833;SDS011;3962;42.696;23.354;2022-07-29T06:05:03;9.77;;;8.43;;
7833;SDS011;3962;42.696;23.354;2022-07-29T06:07:30;12.57;;;8.63;;
7833;SDS011;3962;42.696;23.354;2022-07-29T06:09:57;9.90;;;8.47;;
7833;SDS011;3962;42.696;23.354;2022-07-29T06:12:25;15.00;;;8.87;;
7833;SDS011;3962;42.696;23.354;2022-07-29T06:14:52;11.60;;;9.13;;
7833;SDS011;3962;42.696;23.354;2022-07-29T06:17:19;8.93;;;8.03;;
7833;SDS011;3962;42.696;23.354;2022-07-29T06:19:46;10.50;;;7.67;;
7833;SDS011;3962;42.696;23.354;2022-07-29T06:22:14;9.43;;;6.37;;
7833;SDS011;3962;42.696;23.354;2022-07-29T06:24:41;10.30;;;7.50;;
7833;SDS011;3962;42.696;23.354;2022-07-29T06:27:09;10.40;;;7.37;;
7833;SDS011;3962;42.696;23.354;2022-07-29T06:29:37;11.30;;;6.77;;
7833;SDS011;3962;42.696;23.354;2022-07-29T06:32:05;12.03;;;7.43;;
7833;SDS011;3962;42.696;23.354;2022-07-29T06:34:32;7.47;;;6.67;;
7833;SDS011;3962;42.696;23.354;2022-07-29T06:36:59;12.27;;;7.47;;
7833;SDS011;3962;42.696;23.354;2022-07-29T06:39:27;10.07;;;7.67;;
7833;SDS011;3962;42.696;23.354;2022-07-29T06:41:54;8.60;;;7.03;;
7833;SDS011;3962;42.696;23.354;2022-07-29T06:44:21;16.17;;;8.00;;
7833;SDS011;3962;42.696;23.354;2022-07-29T06:46:49;6.27;;;5.67;;
7833;SDS011;3962;42.696;23.354;2022-07-29T06:49:16;8.13;;;6.47;;
7833;SDS011;3962;42.696;23.354;2022-07-29T06:51:43;11.27;;;5.83;;
7833;SDS011;3962;42.696;23.354;2022-07-29T06:54:10;9.10;;;6.00;;
7833;SDS011;3962;42.696;23.354;2022-07-29T06:56:37;10.60;;;5.73;;
7833;SDS011;3962;42.696;23.354;2022-07-29T06:59:07;6.47;;;5.13;;
7833;SDS011;3962;42.696;23.354;2022-07-29T07:01:35;7.73;;;4.80;;
7833;SDS011;3962;42.696;23.354;2022-07-29T07:04:04;9.37;;;5.60;;
7833;SDS011;3962;42.696;23.354;2022-07-29T07:06:31;4.80;;;4.30;;
7833;SDS011;3962;42.696;23.354;2022-07-29T07:08:58;7.17;;;4.83;;
7833;SDS011;3962;42.696;23.354;2022-07-29T07:11:25;7.83;;;5.17;;
7833;SDS011;3962;42.696;23.354;2022-07-29T07:14:05;5.77;;;4.90;;
7833;SDS011;3962;42.696;23.354;2022-07-29T07:19:15;6.73;;;4.40;;
7833;SDS011;3962;42.696;23.354;2022-07-29T07:21:43;5.30;;;4.10;;
7833;SDS011;3962;42.696;23.354;2022-07-29T07:24:10;11.40;;;5.00;;
7833;SDS011;3962;42.696;23.354;2022-07-29T07:26:36;7.60;;;4.67;;
7833;SDS011;3962;42.696;23.354;2022-07-29T07:29:04;4.73;;;4.07;;
7833;SDS011;3962;42.696;23.354;2022-07-29T07:31:31;5.67;;;4.30;;
7833;SDS011;3962;42.696;23.354;2022-07-29T07:33:58;5.63;;;4.33;;
7833;SDS011;3962;42.696;23.354;2022-07-29T07:36:26;9.83;;;4.97;;
7833;SDS011;3962;42.696;23.354;2022-07-29T07:38:53;7.50;;;4.50;;
7833;SDS011;3962;42.696;23.354;2022-07-29T07:41:21;7.23;;;4.43;;
7833;SDS011;3962;42.696;23.354;2022-07-29T07:43:48;5.90;;;4.13;;
7833;SDS011;3962;42.696;23.354;2022-07-29T07:46:15;8.93;;;4.53;;
7833;SDS011;3962;42.696;23.354;2022-07-29T07:48:42;4.67;;;4.17;;
7833;SDS011;3962;42.696;23.354;2022-07-29T07:51:09;9.43;;;4.30;;
7833;SDS011;3962;42.696;23.354;2022-07-29T07:53:38;4.53;;;3.70;;
7833;SDS011;3962;42.696;23.354;2022-07-29T07:56:05;5.70;;;3.90;;
7833;SDS011;3962;42.696;23.354;2022-07-29T07:58:32;5.60;;;4.40;;
7833;SDS011;3962;42.696;23.354;2022-07-29T08:01:00;8.43;;;5.53;;
7833;SDS011;3962;42.696;23.354;2022-07-29T08:03:27;4.73;;;4.07;;
7833;SDS011;3962;42.696;23.354;2022-07-29T08:05:54;5.20;;;3.80;;
7833;SDS011;3962;42.696;23.354;2022-07-29T08:08:20;5.10;;;3.93;;
7833;SDS011;3962;42.696;23.354;2022-07-29T08:10:49;5.50;;;4.60;;
7833;SDS011;3962;42.696;23.354;2022-07-29T08:13:19;6.27;;;4.57;;
7833;SDS011;3962;42.696;23.354;2022-07-29T08:15:46;7.17;;;3.97;;
7833;SDS011;3962;42.696;23.354;2022-07-29T08:18:22;5.30;;;3.80;;
7833;SDS011;3962;42.696;23.354;2022-07-29T08:20:49;8.03;;;4.93;;
7833;SDS011;3962;42.696;23.354;2022-07-29T08:23:16;4.40;;;3.57;;
7833;SDS011;3962;42.696;23.354;2022-07-29T08:25:44;5.77;;;4.20;;
7833;SDS011;3962;42.696;23.354;2022-07-29T08:28:12;8.30;;;3.80;;
7833;SDS011;3962;42.696;23.354;2022-07-29T08:30:39;5.53;;;4.27;;
7833;SDS011;3962;42.696;23.354;2022-07-29T08:33:06;4.40;;;3.60;;
7833;SDS011;3962;42.696;23.354;2022-07-29T08:35:33;3.47;;;3.27;;
7833;SDS011;3962;42.696;23.354;2022-07-29T08:37:59;5.37;;;4.10;;
7833;SDS011;3962;42.696;23.354;2022-07-29T08:40:28;9.63;;;4.60;;
7833;SDS011;3962;42.696;23.354;2022-07-29T08:42:55;4.90;;;3.80;;
7833;SDS011;3962;42.696;23.354;2022-07-29T08:45:23;4.50;;;3.80;;
7833;SDS011;3962;42.696;23.354;2022-07-29T08:47:51;4.40;;;3.60;;
7833;SDS011;3962;42.696;23.354;2022-07-29T08:50:18;4.63;;;4.23;;
7833;SDS011;3962;42.696;23.354;2022-07-29T08:52:45;4.67;;;3.37;;
7833;SDS011;3962;42.696;23.354;2022-07-29T08:55:15;5.60;;;4.00;;
7833;SDS011;3962;42.696;23.354;2022-07-29T08:57:43;4.53;;;3.40;;
7833;SDS011;3962;42.696;23.354;2022-07-29T09:00:13;4.53;;;3.57;;
7833;SDS011;3962;42.696;23.354;2022-07-29T09:02:44;4.10;;;3.70;;
7833;SDS011;3962;42.696;23.354;2022-07-29T09:05:16;6.53;;;4.50;;
7833;SDS011;3962;42.696;23.354;2022-07-29T09:07:44;5.07;;;3.80;;
7833;SDS011;3962;42.696;23.354;2022-07-29T09:10:13;5.73;;;3.70;;
7833;SDS011;3962;42.696;23.354;2022-07-29T09:12:39;5.17;;;3.90;;
7833;SDS011;3962;42.696;23.354;2022-07-29T09:15:07;4.07;;;3.60;;
7833;SDS011;3962;42.696;23.354;2022-07-29T09:17:40;3.93;;;3.43;;
7833;SDS011;3962;42.696;23.354;2022-07-29T09:20:10;4.90;;;3.33;;
7833;SDS011;3962;42.696;23.354;2022-07-29T09:22:38;6.90;;;3.67;;
7833;SDS011;3962;42.696;23.354;2022-07-29T09:25:05;6.00;;;4.20;;
7833;SDS011;3962;42.696;23.354;2022-07-29T09:27:32;4.80;;;3.90;;
7833;SDS011;3962;42.696;23.354;2022-07-29T09:30:00;5.40;;;4.20;;
7833;SDS011;3962;42.696;23.354;2022-07-29T09:32:29;5.43;;;4.40;;
7833;SDS011;3962;42.696;23.354;2022-07-29T09:35:20;5.27;;;3.90;;
7833;SDS011;3962;42.696;23.354;2022-07-29T09:37:48;4.50;;;4.10;;
7833;SDS011;3962;42.696;23.354;2022-07-29T09:40:16;7.73;;;3.77;;
7833;SDS011;3962;42.696;23.354;2022-07-29T09:42:44;6.10;;;4.40;;
7833;SDS011;3962;42.696;23.354;2022-07-29T09:45:11;4.33;;;3.93;;
7833;SDS011;3962;42.696;23.354;2022-07-29T09:47:43;5.00;;;3.87;;
7833;SDS011;3962;42.696;23.354;2022-07-29T09:50:12;4.67;;;4.03;;
7833;SDS011;3962;42.696;23.354;2022-07-29T09:52:46;5.23;;;3.83;;
7833;SDS011;3962;42.696;23.354;2022-07-29T09:55:13;4.43;;;3.80;;
7833;SDS011;3962;42.696;23.354;2022-07-29T09:57:41;3.87;;;3.30;;
7833;SDS011;3962;42.696;23.354;2022-07-29T10:00:08;7.13;;;3.83;;
7833;SDS011;3962;42.696;23.354;2022-07-29T10:02:38;4.73;;;3.30;;
7833;SDS011;3962;42.696;23.354;2022-07-29T10:05:09;4.43;;;3.80;;
7833;SDS011;3962;42.696;23.354;2022-07-29T10:07:44;4.23;;;3.30;;
7833;SDS011;3962;42.696;23.354;2022-07-29T10:10:18;3.70;;;3.30;;
7833;SDS011;3962;42.696;23.354;2022-07-29T10:12:50;3.70;;;3.40;;
7833;SDS011;3962;42.696;23.354;2022-07-29T10:15:19;3.47;;;3.17;;
7833;SDS011;3962;42.696;23.354;2022-07-29T10:17:48;4.80;;;3.60;;
7833;SDS011;3962;42.696;23.354;2022-07-29T10:20:15;6.50;;;3.50;;
7833;SDS011;3962;42.696;23.354;2022-07-29T10:22:42;4.67;;;3.67;;
7833;SDS011;3962;42.696;23.354;2022-07-29T10:25:13;3.90;;;3.53;;
7833;SDS011;3962;42.696;23.354;2022-07-29T10:27:40;4.67;;;3.60;;
7833;SDS011;3962;42.696;23.354;2022-07-29T10:30:08;3.90;;;3.50;;
7833;SDS011;3962;42.696;23.354;2022-07-29T10:32:40;5.90;;;3.80;;
7833;SDS011;3962;42.696;23.354;2022-07-29T10:35:29;6.50;;;3.80;;
7833;SDS011;3962;42.696;23.354;2022-07-29T10:38:27;4.43;;;3.40;;
7833;SDS011;3962;42.696;23.354;2022-07-29T10:41:09;11.27;;;4.33;;
7833;SDS011;3962;42.696;23.354;2022-07-29T10:44:00;6.17;;;4.03;;
7833;SDS011;3962;42.696;23.354;2022-07-29T10:46:28;4.33;;;3.90;;
7833;SDS011;3962;42.696;23.354;2022-07-29T10:49:08;5.83;;;4.37;;
7833;SDS011;3962;42.696;23.354;2022-07-29T10:54:38;4.57;;;3.83;;
7833;SDS011;3962;42.696;23.354;2022-07-29T10:57:18;4.20;;;3.50;;
7833;SDS011;3962;42.696;23.354;2022-07-29T10:59:50;4.70;;;4.00;;
7833;SDS011;3962;42.696;23.354;2022-07-29T11:02:44;4.90;;;4.10;;
7833;SDS011;3962;42.696;23.354;2022-07-29T11:05:13;5.07;;;4.13;;
7833;SDS011;3962;42.696;23.354;2022-07-29T11:10:43;6.07;;;3.97;;
7833;SDS011;3962;42.696;23.354;2022-07-29T11:13:11;3.90;;;3.60;;
7833;SDS011;3962;42.696;23.354;2022-07-29T11:15:51;6.90;;;3.87;;
7833;SDS011;3962;42.696;23.354;2022-07-29T11:18:19;8.27;;;4.10;;
7833;SDS011;3962;42.696;23.354;2022-07-29T11:20:47;5.83;;;4.27;;
7833;SDS011;3962;42.696;23.354;2022-07-29T11:23:19;5.30;;;4.57;;
7833;SDS011;3962;42.696;23.354;2022-07-29T11:28:42;5.83;;;4.10;;
7833;SDS011;3962;42.696;23.354;2022-07-29T11:31:16;5.03;;;4.40;;
7833;SDS011;3962;42.696;23.354;2022-07-29T11:33:57;5.50;;;4.17;;
7833;SDS011;3962;42.696;23.354;2022-07-29T11:39:47;4.77;;;4.27;;
7833;SDS011;3962;42.696;23.354;2022-07-29T11:42:50;5.37;;;4.53;;
7833;SDS011;3962;42.696;23.354;2022-07-29T11:45:26;4.50;;;4.10;;
7833;SDS011;3962;42.696;23.354;2022-07-29T11:48:16;4.67;;;4.27;;
7833;SDS011;3962;42.696;23.354;2022-07-29T11:50:43;5.67;;;4.70;;
7833;SDS011;3962;42.696;23.354;2022-07-29T11:53:11;6.23;;;4.47;;
7833;SDS011;3962;42.696;23.354;2022-07-29T11:55:39;4.63;;;4.17;;
7833;SDS011;3962;42.696;23.354;2022-07-29T11:58:07;5.13;;;4.30;;
7833;SDS011;3962;42.696;23.354;2022-07-29T12:00:36;7.33;;;5.20;;
7833;SDS011;3962;42.696;23.354;2022-07-29T12:03:05;6.43;;;5.20;;
7833;SDS011;3962;42.696;23.354;2022-07-29T12:05:34;5.17;;;4.37;;
7833;SDS011;3962;42.696;23.354;2022-07-29T12:08:05;6.57;;;4.60;;
7833;SDS011;3962;42.696;23.354;2022-07-29T12:10:34;6.47;;;4.80;;
7833;SDS011;3962;42.696;23.354;2022-07-29T12:13:01;7.97;;;4.70;;
7833;SDS011;3962;42.696;23.354;2022-07-29T12:15:28;6.03;;;4.90;;
7833;SDS011;3962;42.696;23.354;2022-07-29T12:17:56;4.90;;;4.40;;
7833;SDS011;3962;42.696;23.354;2022-07-29T12:20:24;6.77;;;4.97;;
7833;SDS011;3962;42.696;23.354;2022-07-29T12:22:52;5.17;;;4.67;;
7833;SDS011;3962;42.696;23.354;2022-07-29T12:25:20;5.53;;;5.07;;
7833;SDS011;3962;42.696;23.354;2022-07-29T12:27:57;7.90;;;5.40;;
7833;SDS011;3962;42.696;23.354;2022-07-29T12:30:34;7.83;;;5.20;;
7833;SDS011;3962;42.696;23.354;2022-07-29T12:33:11;11.63;;;5.43;;
7833;SDS011;3962;42.696;23.354;2022-07-29T12:35:39;7.23;;;5.07;;
7833;SDS011;3962;42.696;23.354;2022-07-29T12:38:09;7.17;;;5.43;;
7833;SDS011;3962;42.696;23.354;2022-07-29T12:40:36;6.33;;;5.23;;
7833;SDS011;3962;42.696;23.354;2022-07-29T12:43:07;5.07;;;4.67;;
7833;SDS011;3962;42.696;23.354;2022-07-29T12:45:35;7.03;;;5.13;;
7833;SDS011;3962;42.696;23.354;2022-07-29T12:48:02;7.17;;;5.17;;
7833;SDS011;3962;42.696;23.354;2022-07-29T12:50:31;5.87;;;5.27;;
7833;SDS011;3962;42.696;23.354;2022-07-29T12:53:08;5.93;;;5.33;;
7833;SDS011;3962;42.696;23.354;2022-07-29T12:55:40;6.83;;;5.20;;
7833;SDS011;3962;42.696;23.354;2022-07-29T12:58:08;5.47;;;5.07;;
7833;SDS011;3962;42.696;23.354;2022-07-29T13:00:35;5.50;;;5.00;;
7833;SDS011;3962;42.696;23.354;2022-07-29T13:03:02;6.23;;;5.67;;
7833;SDS011;3962;42.696;23.354;2022-07-29T13:05:41;6.23;;;5.10;;
7833;SDS011;3962;42.696;23.354;2022-07-29T13:08:09;5.70;;;5.20;;
7833;SDS011;3962;42.696;23.354;2022-07-29T13:10:37;5.70;;;5.10;;
7833;SDS011;3962;42.696;23.354;2022-07-29T13:13:04;6.37;;;5.77;;
7833;SDS011;3962;42.696;23.354;2022-07-29T13:15:33;5.63;;;5.07;;
7833;SDS011;3962;42.696;23.354;2022-07-29T13:18:00;7.43;;;5.37;;
7833;SDS011;3962;42.696;23.354;2022-07-29T13:20:28;6.10;;;5.53;;
7833;SDS011;3962;42.696;23.354;2022-07-29T13:22:58;5.53;;;4.93;;
7833;SDS011;3962;42.696;23.354;2022-07-29T13:25:26;5.72;;;5.22;;
7833;SDS011;3962;42.696;23.354;2022-07-29T13:27:54;7.68;;;5.07;;
7833;SDS011;3962;42.696;23.354;2022-07-29T13:30:22;5.43;;;4.93;;
7833;SDS011;3962;42.696;23.354;2022-07-29T13:32:49;5.73;;;5.13;;
7833;SDS011;3962;42.696;23.354;2022-07-29T13:35:17;5.27;;;4.87;;
7833;SDS011;3962;42.696;23.354;2022-07-29T13:37:45;6.10;;;5.60;;
7833;SDS011;3962;42.696;23.354;2022-07-29T13:40:13;5.72;;;5.10;;
7833;SDS011;3962;42.696;23.354;2022-07-29T13:42:41;5.85;;;5.25;;
7833;SDS011;3962;42.696;23.354;2022-07-29T13:45:08;5.45;;;4.95;;
7833;SDS011;3962;42.696;23.354;2022-07-29T13:47:37;5.60;;;5.10;;
7833;SDS011;3962;42.696;23.354;2022-07-29T13:50:04;7.10;;;5.32;;
7833;SDS011;3962;42.696;23.354;2022-07-29T13:52:33;5.28;;;4.88;;
7833;SDS011;3962;42.696;23.354;2022-07-29T13:55:00;6.13;;;5.57;;
7833;SDS011;3962;42.696;23.354;2022-07-29T13:57:29;7.75;;;5.50;;
7833;SDS011;3962;42.696;23.354;2022-07-29T13:59:56;7.63;;;5.10;;
7833;SDS011;3962;42.696;23.354;2022-07-29T14:02:23;6.32;;;5.10;;
7833;SDS011;3962;42.696;23.354;2022-07-29T14:04:50;6.23;;;5.13;;
7833;SDS011;3962;42.696;23.354;2022-07-29T14:07:16;5.32;;;4.80;;
7833;SDS011;3962;42.696;23.354;2022-07-29T14:09:43;6.97;;;5.17;;
7833;SDS011;3962;42.696;23.354;2022-07-29T14:12:10;5.70;;;5.10;;
7833;SDS011;3962;42.696;23.354;2022-07-29T14:14:39;5.83;;;5.23;;
7833;SDS011;3962;42.696;23.354;2022-07-29T14:17:06;6.25;;;5.65;;
7833;SDS011;3962;42.696;23.354;2022-07-29T14:19:33;6.00;;;5.30;;
7833;SDS011;3962;42.696;23.354;2022-07-29T14:22:02;5.45;;;4.80;;
7833;SDS011;3962;42.696;23.354;2022-07-29T14:24:29;6.32;;;5.05;;
7833;SDS011;3962;42.696;23.354;2022-07-29T14:26:56;6.73;;;4.97;;
7833;SDS011;3962;42.696;23.354;2022-07-29T14:29:23;5.63;;;5.03;;
7833;SDS011;3962;42.696;23.354;2022-07-29T14:31:52;5.85;;;5.25;;
7833;SDS011;3962;42.696;23.354;2022-07-29T14:34:19;6.05;;;5.40;;
7833;SDS011;3962;42.696;23.354;2022-07-29T14:36:46;6.47;;;5.28;;
7833;SDS011;3962;42.696;23.354;2022-07-29T14:39:12;5.93;;;5.43;;
7833;SDS011;3962;42.696;23.354;2022-07-29T14:41:40;5.83;;;5.23;;
7833;SDS011;3962;42.696;23.354;2022-07-29T14:44:07;6.20;;;5.60;;
7833;SDS011;3962;42.696;23.354;2022-07-29T14:46:34;8.67;;;5.60;;
7833;SDS011;3962;42.696;23.354;2022-07-29T14:49:02;8.13;;;6.10;;
7833;SDS011;3962;42.696;23.354;2022-07-29T14:51:30;6.17;;;5.43;;
7833;SDS011;3962;42.696;23.354;2022-07-29T14:53:57;6.33;;;5.20;;
7833;SDS011;3962;42.696;23.354;2022-07-29T14:56:24;6.77;;;5.37;;
7833;SDS011;3962;42.696;23.354;2022-07-29T14:58:52;5.13;;;4.73;;
7833;SDS011;3962;42.696;23.354;2022-07-29T15:01:18;6.80;;;5.20;;
7833;SDS011;3962;42.696;23.354;2022-07-29T15:03:45;5.65;;;5.05;;
7833;SDS011;3962;42.696;23.354;2022-07-29T15:06:13;7.00;;;5.57;;
7833;SDS011;3962;42.696;23.354;2022-07-29T15:08:40;6.20;;;5.60;;
7833;SDS011;3962;42.696;23.354;2022-07-29T15:11:07;9.27;;;5.47;;
7833;SDS011;3962;42.696;23.354;2022-07-29T15:13:34;6.77;;;5.87;;
7833;SDS011;3962;42.696;23.354;2022-07-29T15:16:00;6.80;;;6.20;;